Weather at Madeira International Airport Cristiano Ronaldo

Public forecast

Using degrees Celsius for public forecast. Weather courtesy of forecast.io.

Current aviation weather report (METAR) for Madeira International Airport Cristiano Ronaldo

Retrieved 2022/05/22 17:30 UTC (18 minutes ago):

LPMA 221730Z 03014KT 360V060 9999 FEW016 22/14 Q1020

Aviation forecast (TAF) for Madeira International Airport Cristiano Ronaldo

Retrieved 2022/05/22 12:18 UTC (6 hours ago):

TAF LPMA 221100Z 2212/2312 01013KT 9999 SCT015 SCT030 PROB30 TEMPO 2212/2218 01017G27KT